Time;durP1;ratioP1;P1;durP2;ratioP2;P2;SDS_P1;SDS_P2;PMS_P1;PMS_P2;Temp;Humidity;BMP_temperature;BMP_pressure;BME280_temperature;BME280_humidity;BME280_pressure;Samples;Min_cycle;Max_cycle;Signal;HPM_P1;HPM_P2
2021/03/22 00:00:32;;;;;;;26.83;12.10;;;;;;;;;;5001863;28;20193;-70
2021/03/22 00:02:58;;;;;;;32.87;14.07;;;;;;;;;;5018436;28;20218;-70
2021/03/22 00:05:25;;;;;;;26.23;12.27;;;;;;;;;;5019279;28;20196;-70
2021/03/22 00:07:52;;;;;;;32.63;12.53;;;;;;;;;;5018998;28;20198;-70
2021/03/22 00:10:19;;;;;;;32.17;11.97;;;;;;;;;;4998308;28;20224;-70
2021/03/22 00:12:46;;;;;;;33.27;12.07;;;;;;;;;;5016508;28;20668;-70
2021/03/22 00:15:12;;;;;;;41.33;12.27;;;;;;;;;;4998442;28;20618;-70
2021/03/22 00:17:38;;;;;;;27.07;12.13;;;;;;;;;;5010220;28;20654;-69
2021/03/22 00:20:05;;;;;;;31.07;11.70;;;;;;;;;;5014394;28;20250;-70
2021/03/22 00:22:31;;;;;;;29.30;12.40;;;;;;;;;;4999018;28;20201;-70
2021/03/22 00:24:57;;;;;;;28.50;10.83;;;;;;;;;;4998122;28;20641;-70
2021/03/22 00:27:23;;;;;;;32.60;12.00;;;;;;;;;;5014666;28;20190;-70
2021/03/22 00:29:49;;;;;;;31.20;12.30;;;;;;;;;;4992470;28;20194;-70
2021/03/22 00:32:15;;;;;;;30.13;12.43;;;;;;;;;;5016220;28;20207;-70
2021/03/22 00:34:41;;;;;;;42.83;12.00;;;;;;;;;;4997588;28;20193;-70
2021/03/22 00:37:07;;;;;;;28.67;12.13;;;;;;;;;;5014053;28;20257;-71
2021/03/22 00:39:33;;;;;;;34.70;12.47;;;;;;;;;;5011133;28;20915;-70
2021/03/22 00:41:59;;;;;;;32.20;11.63;;;;;;;;;;4996920;28;20266;-70
2021/03/22 00:44:25;;;;;;;32.00;11.67;;;;;;;;;;5017353;28;20244;-69
2021/03/22 00:46:51;;;;;;;28.13;11.37;;;;;;;;;;5016783;28;20192;-69
2021/03/22 00:49:17;;;;;;;31.37;13.43;;;;;;;;;;4999541;28;20199;-70
2021/03/22 00:51:43;;;;;;;41.77;14.37;;;;;;;;;;5012551;28;20589;-70
2021/03/22 00:54:09;;;;;;;32.87;12.20;;;;;;;;;;5017427;28;20221;-70
2021/03/22 00:56:35;;;;;;;37.00;12.97;;;;;;;;;;4999491;28;20217;-70
2021/03/22 00:59:01;;;;;;;25.60;11.10;;;;;;;;;;5017493;28;20210;-70
2021/03/22 01:01:27;;;;;;;34.53;12.87;;;;;;;;;;5015639;28;20185;-69
2021/03/22 01:03:53;;;;;;;36.63;12.37;;;;;;;;;;5014452;28;20204;-70
2021/03/22 01:06:19;;;;;;;38.87;12.27;;;;;;;;;;5016789;28;20186;-70
2021/03/22 01:08:45;;;;;;;27.60;11.57;;;;;;;;;;5017299;28;20273;-70
2021/03/22 01:11:16;;;;;;;30.90;11.63;;;;;;;;;;4999466;28;20476;-70
2021/03/22 01:13:44;;;;;;;28.10;12.07;;;;;;;;;;5016551;28;20219;-70
2021/03/22 01:16:10;;;;;;;37.23;12.90;;;;;;;;;;5015376;28;20191;-70
2021/03/22 01:18:38;;;;;;;33.90;10.93;;;;;;;;;;5017309;28;20270;-69
2021/03/22 01:21:07;;;;;;;38.93;12.13;;;;;;;;;;4999067;28;20185;-70
2021/03/22 01:23:33;;;;;;;24.23;10.47;;;;;;;;;;4999755;28;20206;-70
2021/03/22 01:25:59;;;;;;;28.23;10.63;;;;;;;;;;4996848;28;20189;-70
2021/03/22 01:28:25;;;;;;;29.50;10.63;;;;;;;;;;5007273;28;20206;-70
2021/03/22 01:30:54;;;;;;;29.73;10.00;;;;;;;;;;5009256;28;20276;-70
2021/03/22 01:33:23;;;;;;;31.43;10.53;;;;;;;;;;5003284;28;20210;-69
2021/03/22 01:35:49;;;;;;;26.53;10.33;;;;;;;;;;5014844;28;20231;-70
2021/03/22 01:38:16;;;;;;;34.50;11.03;;;;;;;;;;5016995;28;20206;-70
2021/03/22 01:41:00;;;;;;;33.80;11.70;;;;;;;;;;5010889;28;20189;-70
2021/03/22 01:43:36;;;;;;;33.53;10.33;;;;;;;;;;4998629;28;20217;-70
2021/03/22 01:46:02;;;;;;;28.53;9.60;;;;;;;;;;5020284;28;20207;-71
2021/03/22 01:48:29;;;;;;;30.93;9.40;;;;;;;;;;5019893;28;20234;-70
2021/03/22 01:50:55;;;;;;;30.77;9.47;;;;;;;;;;5001498;28;20555;-70
2021/03/22 01:53:21;;;;;;;36.50;9.30;;;;;;;;;;5016597;28;20220;-70
2021/03/22 01:55:47;;;;;;;26.83;9.77;;;;;;;;;;5017187;28;20192;-70
2021/03/22 01:58:13;;;;;;;31.67;9.17;;;;;;;;;;5015126;28;20560;-70
2021/03/22 02:00:40;;;;;;;32.40;8.80;;;;;;;;;;4997175;28;20191;-70
2021/03/22 02:03:15;;;;;;;34.17;8.70;;;;;;;;;;5013845;28;20230;-70
2021/03/22 02:05:44;;;;;;;33.57;8.90;;;;;;;;;;4999327;28;20176;-70
2021/03/22 02:08:15;;;;;;;25.03;8.87;;;;;;;;;;4999038;28;20195;-70
2021/03/22 02:10:43;;;;;;;31.63;8.53;;;;;;;;;;4997687;28;20579;-69
2021/03/22 02:13:10;;;;;;;21.20;7.90;;;;;;;;;;5012615;28;20207;-70
2021/03/22 02:15:38;;;;;;;25.10;7.53;;;;;;;;;;5017093;28;20676;-70
2021/03/22 02:18:09;;;;;;;29.57;9.70;;;;;;;;;;5018625;28;20181;-70
2021/03/22 02:20:53;;;;;;;26.87;7.83;;;;;;;;;;5019104;28;20199;-70
2021/03/22 02:23:38;;;;;;;22.20;7.70;;;;;;;;;;5018332;28;20272;-70
2021/03/22 02:26:22;;;;;;;28.03;8.47;;;;;;;;;;5007316;28;20215;-70
2021/03/22 02:29:10;;;;;;;25.03;8.33;;;;;;;;;;5019588;28;20193;-70
2021/03/22 02:31:55;;;;;;;34.53;8.80;;;;;;;;;;5017875;28;20814;-70
2021/03/22 02:34:24;;;;;;;23.20;7.80;;;;;;;;;;5017571;28;20285;-70
2021/03/22 02:36:59;;;;;;;21.90;8.37;;;;;;;;;;5012804;28;20795;-70
2021/03/22 02:39:30;;;;;;;29.37;7.80;;;;;;;;;;5019578;28;20213;-70
2021/03/22 02:42:00;;;;;;;21.13;7.90;;;;;;;;;;4999619;28;20252;-70
2021/03/22 02:44:30;;;;;;;26.60;7.73;;;;;;;;;;5018058;28;20207;-70
2021/03/22 02:46:56;;;;;;;26.97;8.20;;;;;;;;;;5016131;28;20194;-70
2021/03/22 02:49:23;;;;;;;29.87;8.43;;;;;;;;;;5018535;28;20281;-70
2021/03/22 02:52:07;;;;;;;28.20;8.53;;;;;;;;;;5001239;28;20200;-70
2021/03/22 02:54:47;;;;;;;28.90;8.17;;;;;;;;;;5014416;28;20557;-69
2021/03/22 02:57:20;;;;;;;26.00;8.10;;;;;;;;;;5001178;28;20194;-70
2021/03/22 02:59:49;;;;;;;28.47;8.17;;;;;;;;;;5013154;28;20208;-70
2021/03/22 03:02:16;;;;;;;25.80;8.53;;;;;;;;;;4999865;28;20212;-70
2021/03/22 03:04:43;;;;;;;21.17;7.60;;;;;;;;;;4994834;28;20188;-70
2021/03/22 03:07:10;;;;;;;30.17;8.20;;;;;;;;;;4999838;28;20193;-70
2021/03/22 03:09:38;;;;;;;28.17;7.77;;;;;;;;;;5013688;28;20201;-70
2021/03/22 03:12:19;;;;;;;27.70;7.30;;;;;;;;;;5017718;28;20294;-70
2021/03/22 03:14:46;;;;;;;26.60;7.33;;;;;;;;;;5014108;28;20241;-70
2021/03/22 03:17:13;;;;;;;27.97;8.67;;;;;;;;;;4994666;28;20204;-70
2021/03/22 03:19:39;;;;;;;28.40;7.03;;;;;;;;;;5017455;28;20246;-70
2021/03/22 03:22:06;;;;;;;25.40;7.40;;;;;;;;;;5000930;28;20215;-70
2021/03/22 03:24:32;;;;;;;31.30;9.57;;;;;;;;;;5000331;28;20752;-70
2021/03/22 03:26:58;;;;;;;30.20;7.83;;;;;;;;;;4999517;28;20188;-70
2021/03/22 03:29:24;;;;;;;28.57;7.93;;;;;;;;;;4996669;28;20198;-70
2021/03/22 03:31:50;;;;;;;31.80;10.43;;;;;;;;;;4997141;28;20243;-70
2021/03/22 03:34:16;;;;;;;31.13;8.20;;;;;;;;;;4996708;28;20186;-70
2021/03/22 03:36:42;;;;;;;24.80;8.13;;;;;;;;;;5014846;28;20242;-70
2021/03/22 03:39:08;;;;;;;29.53;9.03;;;;;;;;;;4996482;28;20213;-70
2021/03/22 03:41:36;;;;;;;30.73;7.90;;;;;;;;;;5000438;28;20213;-70
2021/03/22 03:44:02;;;;;;;27.20;7.23;;;;;;;;;;4999368;28;20213;-70
2021/03/22 03:46:28;;;;;;;29.73;8.87;;;;;;;;;;4999300;28;20234;-69
2021/03/22 03:48:54;;;;;;;21.73;6.97;;;;;;;;;;5012647;28;20657;-70
2021/03/22 03:51:20;;;;;;;28.87;7.73;;;;;;;;;;4999981;28;20191;-70
2021/03/22 03:53:46;;;;;;;27.67;7.00;;;;;;;;;;5016807;28;20244;-70
2021/03/22 03:56:12;;;;;;;25.03;8.20;;;;;;;;;;5012968;28;20196;-70
2021/03/22 03:58:38;;;;;;;30.47;8.10;;;;;;;;;;4994748;28;20279;-70
2021/03/22 04:01:04;;;;;;;24.00;7.13;;;;;;;;;;5012905;28;20224;-70
2021/03/22 04:03:32;;;;;;;22.47;6.27;;;;;;;;;;5012150;28;20282;-70
2021/03/22 04:05:58;;;;;;;28.50;7.50;;;;;;;;;;5000004;28;20194;-70
2021/03/22 04:08:25;;;;;;;20.07;6.97;;;;;;;;;;5018653;28;20221;-70
2021/03/22 04:10:51;;;;;;;26.93;6.63;;;;;;;;;;5018210;28;20199;-70
2021/03/22 04:13:17;;;;;;;25.97;7.03;;;;;;;;;;5000372;28;20264;-70
2021/03/22 04:15:44;;;;;;;24.80;7.20;;;;;;;;;;5016529;28;20192;-70
2021/03/22 04:18:10;;;;;;;25.33;6.47;;;;;;;;;;5018585;28;20741;-70
2021/03/22 04:20:36;;;;;;;22.90;7.27;;;;;;;;;;5001867;28;20185;-70
2021/03/22 04:23:02;;;;;;;23.17;6.57;;;;;;;;;;5016070;28;20298;-70
2021/03/22 04:25:28;;;;;;;23.63;6.83;;;;;;;;;;5000694;28;20202;-70
2021/03/22 04:27:54;;;;;;;28.63;7.73;;;;;;;;;;5017594;28;20183;-70
2021/03/22 04:30:20;;;;;;;22.17;6.30;;;;;;;;;;4999952;28;20182;-70
2021/03/22 04:32:46;;;;;;;23.90;6.73;;;;;;;;;;5000180;28;20205;-70
2021/03/22 04:35:12;;;;;;;31.33;6.87;;;;;;;;;;5015251;28;20191;-70
2021/03/22 04:37:38;;;;;;;31.30;7.10;;;;;;;;;;5011845;28;20245;-70
2021/03/22 04:40:09;;;;;;;25.23;6.67;;;;;;;;;;5017999;28;20223;-70
2021/03/22 04:42:35;;;;;;;26.83;7.33;;;;;;;;;;4999423;28;20272;-70
2021/03/22 04:45:01;;;;;;;16.67;5.93;;;;;;;;;;5016943;28;20183;-70
2021/03/22 04:47:27;;;;;;;21.53;6.20;;;;;;;;;;5012426;28;20185;-70
2021/03/22 04:49:53;;;;;;;22.57;6.53;;;;;;;;;;4996619;28;20954;-70
2021/03/22 04:52:19;;;;;;;33.03;7.20;;;;;;;;;;4997903;28;20218;-70
2021/03/22 04:54:45;;;;;;;18.13;5.93;;;;;;;;;;4998207;28;20563;-70
2021/03/22 04:57:12;;;;;;;19.40;6.00;;;;;;;;;;5007390;28;20203;-69
2021/03/22 04:59:39;;;;;;;23.30;5.57;;;;;;;;;;5002194;28;20209;-70
2021/03/22 05:02:06;;;;;;;20.20;5.83;;;;;;;;;;5001234;28;20267;-70
2021/03/22 05:04:32;;;;;;;23.27;7.37;;;;;;;;;;5015840;28;20178;-70
2021/03/22 05:06:58;;;;;;;21.03;7.63;;;;;;;;;;4999370;28;20245;-70
2021/03/22 05:09:24;;;;;;;23.77;6.30;;;;;;;;;;5020213;28;20466;-70
2021/03/22 05:11:50;;;;;;;20.67;6.07;;;;;;;;;;5017976;28;20633;-70
2021/03/22 05:14:16;;;;;;;20.17;6.33;;;;;;;;;;5020254;28;20219;-70
2021/03/22 05:16:42;;;;;;;25.17;6.33;;;;;;;;;;5013761;28;20190;-70
2021/03/22 05:19:08;;;;;;;29.50;7.30;;;;;;;;;;4996672;28;20208;-70
2021/03/22 05:21:34;;;;;;;20.47;6.47;;;;;;;;;;5019785;28;20819;-70
2021/03/22 05:24:00;;;;;;;20.87;6.17;;;;;;;;;;5018912;28;20208;-70
2021/03/22 05:26:26;;;;;;;26.33;6.53;;;;;;;;;;5000693;28;20173;-71
2021/03/22 05:28:52;;;;;;;25.23;7.70;;;;;;;;;;5018171;28;20401;-70
2021/03/22 05:31:18;;;;;;;24.63;7.03;;;;;;;;;;4998995;28;20224;-71
2021/03/22 05:33:44;;;;;;;21.23;6.60;;;;;;;;;;5017968;28;20561;-70
2021/03/22 05:36:10;;;;;;;27.60;6.67;;;;;;;;;;5017061;28;20200;-71
2021/03/22 05:38:37;;;;;;;16.83;5.87;;;;;;;;;;4997603;28;20211;-70
2021/03/22 05:41:04;;;;;;;21.30;5.10;;;;;;;;;;5018047;28;20187;-70
2021/03/22 05:43:37;;;;;;;18.37;5.53;;;;;;;;;;5019321;28;20277;-70
2021/03/22 05:46:03;;;;;;;23.23;5.07;;;;;;;;;;5001156;28;20189;-70
2021/03/22 05:48:32;;;;;;;23.03;5.93;;;;;;;;;;5001949;28;20624;-70
2021/03/22 05:50:58;;;;;;;21.00;6.23;;;;;;;;;;4999915;28;20191;-70
2021/03/22 05:53:44;;;;;;;18.33;5.10;;;;;;;;;;5019958;28;20239;-70
2021/03/22 05:56:14;;;;;;;16.50;5.10;;;;;;;;;;5001510;28;20336;-70
2021/03/22 05:58:40;;;;;;;21.90;5.77;;;;;;;;;;5014046;28;20217;-70
2021/03/22 06:01:30;;;;;;;18.07;5.00;;;;;;;;;;5017031;28;20208;-69
2021/03/22 06:04:04;;;;;;;12.97;4.50;;;;;;;;;;5018749;28;20292;-70
2021/03/22 06:06:36;;;;;;;16.57;5.33;;;;;;;;;;5014695;28;20270;-70
2021/03/22 06:09:06;;;;;;;20.13;5.37;;;;;;;;;;5016035;28;20201;-70
2021/03/22 06:11:35;;;;;;;25.40;5.00;;;;;;;;;;5014883;28;20209;-70
2021/03/22 06:14:03;;;;;;;20.77;4.87;;;;;;;;;;5014113;28;20192;-71
2021/03/22 06:16:35;;;;;;;18.33;5.73;;;;;;;;;;5018040;28;20247;-70
2021/03/22 06:19:05;;;;;;;13.97;4.57;;;;;;;;;;5016507;28;20217;-70
2021/03/22 06:21:33;;;;;;;18.07;4.43;;;;;;;;;;5016678;28;20278;-70
2021/03/22 06:23:59;;;;;;;16.17;4.37;;;;;;;;;;5015667;28;20211;-69
2021/03/22 06:26:40;;;;;;;23.13;4.80;;;;;;;;;;4998097;28;20194;-69
2021/03/22 06:29:39;;;;;;;14.40;4.70;;;;;;;;;;5012836;28;20216;-69
2021/03/22 06:32:06;;;;;;;20.93;4.60;;;;;;;;;;4948925;29;20259;-69
2021/03/22 06:34:48;;;;;;;15.97;4.83;;;;;;;;;;4955892;29;20863;-69
2021/03/22 06:37:16;;;;;;;15.60;4.83;;;;;;;;;;4955937;29;20789;-69
2021/03/22 06:39:43;;;;;;;19.07;4.47;;;;;;;;;;4938736;29;20229;-69
2021/03/22 06:42:20;;;;;;;20.03;5.53;;;;;;;;;;4955620;28;20233;-69
2021/03/22 06:44:47;;;;;;;18.00;5.23;;;;;;;;;;4955062;29;20736;-69
2021/03/22 06:47:13;;;;;;;18.57;5.27;;;;;;;;;;4955031;29;20872;-69
2021/03/22 06:49:41;;;;;;;21.67;5.43;;;;;;;;;;4937804;29;20204;-68
2021/03/22 06:52:09;;;;;;;26.63;5.97;;;;;;;;;;4953882;29;20292;-69
2021/03/22 06:54:39;;;;;;;18.30;5.23;;;;;;;;;;4953680;29;20289;-70
2021/03/22 06:57:07;;;;;;;25.87;6.20;;;;;;;;;;4946688;29;20190;-69
2021/03/22 06:59:33;;;;;;;20.47;6.63;;;;;;;;;;4952921;29;20725;-70
2021/03/22 07:02:11;;;;;;;23.23;5.80;;;;;;;;;;4949847;28;20224;-70
2021/03/22 07:04:38;;;;;;;91.43;14.60;;;;;;;;;;4951000;28;20380;-70
2021/03/22 07:07:13;;;;;;;29.03;7.57;;;;;;;;;;4939079;29;20300;-70
2021/03/22 07:09:43;;;;;;;50.00;9.67;;;;;;;;;;5013208;28;20687;-70
2021/03/22 07:12:20;;;;;;;38.17;8.80;;;;;;;;;;5010306;28;20227;-69
2021/03/22 07:14:46;;;;;;;28.03;6.97;;;;;;;;;;5017114;28;20187;-70
2021/03/22 07:17:17;;;;;;;28.30;6.43;;;;;;;;;;5018154;28;20263;-69
2021/03/22 07:19:43;;;;;;;22.50;7.23;;;;;;;;;;5004001;28;20256;-69
2021/03/22 07:22:21;;;;;;;24.57;6.47;;;;;;;;;;5011417;28;20201;-69
2021/03/22 07:24:47;;;;;;;24.43;6.27;;;;;;;;;;4997082;28;20181;-69
2021/03/22 07:27:18;;;;;;;26.83;7.77;;;;;;;;;;5016612;28;20681;-69
2021/03/22 07:29:44;;;;;;;52.23;9.40;;;;;;;;;;5017930;28;20225;-70
2021/03/22 07:32:19;;;;;;;29.87;6.97;;;;;;;;;;4997434;28;20582;-69
2021/03/22 07:35:04;;;;;;;333.60;34.87;;;;;;;;;;5005817;28;20660;-70
2021/03/22 07:37:49;;;;;;;37.03;8.63;;;;;;;;;;4993033;28;20271;-70
2021/03/22 07:40:17;;;;;;;18.63;5.40;;;;;;;;;;5013209;28;20213;-70
2021/03/22 07:42:52;;;;;;;27.10;7.50;;;;;;;;;;5013323;28;20212;-70
2021/03/22 07:45:28;;;;;;;23.57;5.40;;;;;;;;;;5014634;28;20192;-70
2021/03/22 07:48:00;;;;;;;19.93;6.03;;;;;;;;;;4997291;28;20405;-70
2021/03/22 07:50:31;;;;;;;28.60;9.07;;;;;;;;;;5013609;28;20205;-70
2021/03/22 07:53:07;;;;;;;21.77;5.93;;;;;;;;;;5014339;28;20207;-69
2021/03/22 07:55:52;;;;;;;23.83;5.60;;;;;;;;;;5014925;28;20203;-70
2021/03/22 07:58:18;;;;;;;21.80;6.17;;;;;;;;;;5008606;28;20230;-70
2021/03/22 08:00:56;;;;;;;20.30;6.57;;;;;;;;;;5010312;28;20599;-70
2021/03/22 08:03:29;;;;;;;27.53;6.07;;;;;;;;;;5016158;28;20207;-70
2021/03/22 08:06:15;;;;;;;18.27;6.27;;;;;;;;;;4995543;28;20189;-70
2021/03/22 08:08:53;;;;;;;20.40;5.80;;;;;;;;;;5015873;28;20195;-69
2021/03/22 08:11:22;;;;;;;19.10;5.57;;;;;;;;;;5016168;28;20294;-70
2021/03/22 08:13:51;;;;;;;18.17;5.90;;;;;;;;;;5018610;28;20207;-71
2021/03/22 08:16:50;;;;;;;20.67;5.93;;;;;;;;;;5017951;28;20600;-70
2021/03/22 08:19:27;;;;;;;18.67;6.83;;;;;;;;;;4917673;29;20225;-70
2021/03/22 08:22:11;;;;;;;19.83;6.37;;;;;;;;;;4921170;29;20201;-70
2021/03/22 08:25:03;;;;;;;19.87;5.73;;;;;;;;;;4915123;29;20211;-70
2021/03/22 08:27:32;;;;;;;21.53;5.03;;;;;;;;;;4894919;29;20300;-70
2021/03/22 08:30:05;;;;;;;17.53;5.50;;;;;;;;;;4909290;29;21091;-68
2021/03/22 08:32:40;;;;;;;22.17;6.33;;;;;;;;;;4912257;29;20208;-70
2021/03/22 08:35:14;;;;;;;16.37;5.87;;;;;;;;;;4912466;29;20525;-69
2021/03/22 08:37:52;;;;;;;18.17;5.63;;;;;;;;;;4916942;29;20735;-70
2021/03/22 08:40:38;;;;;;;12.60;4.13;;;;;;;;;;4910256;29;20905;-71
2021/03/22 08:43:06;;;;;;;14.93;4.70;;;;;;;;;;4927871;29;20230;-70
2021/03/22 08:45:37;;;;;;;11.00;4.20;;;;;;;;;;4924932;29;20400;-69
2021/03/22 08:48:06;;;;;;;16.90;5.50;;;;;;;;;;4924758;29;20236;-70
2021/03/22 08:50:35;;;;;;;12.27;4.50;;;;;;;;;;4923581;29;20231;-70
2021/03/22 08:53:10;;;;;;;12.93;4.60;;;;;;;;;;4923766;29;20293;-70
2021/03/22 08:55:39;;;;;;;12.17;4.70;;;;;;;;;;5001654;28;20627;-70
2021/03/22 08:58:11;;;;;;;14.77;4.27;;;;;;;;;;5014170;28;20185;-70
2021/03/22 09:00:39;;;;;;;16.50;4.38;;;;;;;;;;5016513;28;21286;-70
2021/03/22 09:03:14;;;;;;;7.67;3.37;;;;;;;;;;4999248;28;20201;-70
2021/03/22 09:05:42;;;;;;;12.80;3.77;;;;;;;;;;5017890;28;20187;-70
2021/03/22 09:08:15;;;;;;;9.90;3.40;;;;;;;;;;5024293;28;20181;-69
2021/03/22 09:10:42;;;;;;;7.57;3.20;;;;;;;;;;5013956;28;20661;-69
2021/03/22 09:13:17;;;;;;;6.60;3.07;;;;;;;;;;5011670;28;20271;-70
2021/03/22 09:15:57;;;;;;;10.00;3.50;;;;;;;;;;5016587;28;20192;-69
2021/03/22 09:18:23;;;;;;;11.60;3.67;;;;;;;;;;5018321;28;20291;-70
2021/03/22 09:20:49;;;;;;;17.77;4.27;;;;;;;;;;5018169;28;20233;-70
2021/03/22 09:23:30;;;;;;;15.00;4.67;;;;;;;;;;5005138;28;20212;-70
2021/03/22 09:25:58;;;;;;;14.77;4.73;;;;;;;;;;5014588;28;20308;-70
2021/03/22 09:28:24;;;;;;;11.80;4.00;;;;;;;;;;4997370;28;20197;-70
2021/03/22 09:30:59;;;;;;;12.73;3.80;;;;;;;;;;5015202;28;20196;-69
2021/03/22 09:33:44;;;;;;;18.17;4.13;;;;;;;;;;5002583;28;20203;-70
2021/03/22 09:36:29;;;;;;;14.63;4.17;;;;;;;;;;5004219;28;20578;-69
2021/03/22 09:38:56;;;;;;;10.80;3.70;;;;;;;;;;5016944;28;20205;-70
2021/03/22 09:41:48;;;;;;;13.53;3.97;;;;;;;;;;5017048;28;20303;-70
2021/03/22 09:44:14;;;;;;;10.90;3.90;;;;;;;;;;5016004;28;20187;-69
2021/03/22 09:46:40;;;;;;;17.67;5.47;;;;;;;;;;5015701;28;20208;-69
2021/03/22 09:49:27;;;;;;;13.90;5.73;;;;;;;;;;5016138;28;20275;-69
2021/03/22 09:51:57;;;;;;;13.20;5.30;;;;;;;;;;4988515;28;20201;-70
2021/03/22 09:54:32;;;;;;;13.33;5.40;;;;;;;;;;5014982;28;20196;-69
2021/03/22 09:57:10;;;;;;;14.97;4.67;;;;;;;;;;5008560;28;20190;-70
2021/03/22 09:59:48;;;;;;;11.37;5.37;;;;;;;;;;5015562;28;20215;-69
2021/03/22 10:02:32;;;;;;;10.37;4.27;;;;;;;;;;5012730;28;20208;-70
2021/03/22 10:05:09;;;;;;;13.23;4.00;;;;;;;;;;5011036;28;20576;-69
2021/03/22 10:07:36;;;;;;;15.63;4.87;;;;;;;;;;5014972;28;20638;-69
2021/03/22 10:10:17;;;;;;;20.53;6.93;;;;;;;;;;5015692;28;20211;-70
2021/03/22 10:12:47;;;;;;;11.63;6.03;;;;;;;;;;5018137;28;20705;-69
2021/03/22 10:15:13;;;;;;;11.77;5.27;;;;;;;;;;5017335;28;20221;-69
2021/03/22 10:17:43;;;;;;;10.27;5.07;;;;;;;;;;5016397;28;20257;-69
2021/03/22 10:20:32;;;;;;;11.83;5.80;;;;;;;;;;5017098;28;20212;-69
2021/03/22 10:23:05;;;;;;;14.33;5.37;;;;;;;;;;5008555;28;20246;-69
2021/03/22 10:25:32;;;;;;;14.83;6.07;;;;;;;;;;5016916;28;20198;-69
2021/03/22 10:27:59;;;;;;;18.07;6.30;;;;;;;;;;4997784;28;20948;-69
2021/03/22 10:30:25;;;;;;;9.30;5.07;;;;;;;;;;5017338;28;20274;-69
2021/03/22 10:33:05;;;;;;;16.33;7.37;;;;;;;;;;5014506;28;20216;-70
2021/03/22 10:35:51;;;;;;;12.30;5.20;;;;;;;;;;4998953;28;20284;-69
2021/03/22 10:38:19;;;;;;;9.20;3.70;;;;;;;;;;5012531;28;20219;-69
2021/03/22 10:40:45;;;;;;;9.47;4.57;;;;;;;;;;5018282;28;20319;-69
2021/03/22 10:43:30;;;;;;;12.47;3.80;;;;;;;;;;5013521;28;20208;-69
2021/03/22 10:46:13;;;;;;;12.67;4.27;;;;;;;;;;5018596;28;20271;-69
2021/03/22 10:48:39;;;;;;;14.83;4.13;;;;;;;;;;5011570;28;20203;-69
2021/03/22 10:51:16;;;;;;;11.70;3.93;;;;;;;;;;5022148;28;20188;-69
2021/03/22 10:53:59;;;;;;;9.40;3.33;;;;;;;;;;5005586;28;20204;-69
2021/03/22 10:56:29;;;;;;;10.87;3.80;;;;;;;;;;4995930;28;20787;-69
2021/03/22 10:58:57;;;;;;;9.10;3.73;;;;;;;;;;5014126;28;20215;-69
2021/03/22 11:01:23;;;;;;;8.60;3.80;;;;;;;;;;4999141;28;20211;-69
2021/03/22 11:03:49;;;;;;;10.83;3.93;;;;;;;;;;5005694;28;20909;-69
2021/03/22 11:06:25;;;;;;;7.63;3.00;;;;;;;;;;5008273;28;20176;-69
2021/03/22 11:08:55;;;;;;;8.17;3.80;;;;;;;;;;5008613;28;20185;-69
2021/03/22 11:11:21;;;;;;;13.87;3.97;;;;;;;;;;5012460;28;20201;-69
2021/03/22 11:13:49;;;;;;;15.30;3.80;;;;;;;;;;5020927;28;20212;-69
2021/03/22 11:16:19;;;;;;;10.17;3.83;;;;;;;;;;5007180;28;20251;-69
2021/03/22 11:18:46;;;;;;;7.67;3.30;;;;;;;;;;5013055;28;20204;-69
2021/03/22 11:21:12;;;;;;;11.20;4.07;;;;;;;;;;5011241;28;20200;-69
2021/03/22 11:23:44;;;;;;;13.80;4.17;;;;;;;;;;5005903;28;20213;-69
2021/03/22 11:26:17;;;;;;;8.07;3.07;;;;;;;;;;5102015;27;20548;-70
2021/03/22 11:28:43;;;;;;;12.87;4.20;;;;;;;;;;5106793;28;20189;-70
2021/03/22 11:31:26;;;;;;;5.77;3.13;;;;;;;;;;5097799;28;20186;-70
2021/03/22 11:34:00;;;;;;;10.00;3.57;;;;;;;;;;5095438;28;20209;-70
2021/03/22 11:36:34;;;;;;;7.77;3.07;;;;;;;;;;5103476;28;20190;-69
2021/03/22 11:39:11;;;;;;;10.77;3.67;;;;;;;;;;5093106;28;20194;-70
2021/03/22 11:41:37;;;;;;;9.27;4.30;;;;;;;;;;5098891;28;20660;-70
2021/03/22 11:44:15;;;;;;;8.60;3.60;;;;;;;;;;5102599;28;20224;-70
2021/03/22 11:47:04;;;;;;;10.70;3.50;;;;;;;;;;5107369;28;20178;-70
2021/03/22 11:49:41;;;;;;;9.83;4.77;;;;;;;;;;5081447;28;20213;-69
2021/03/22 11:52:26;;;;;;;8.30;3.23;;;;;;;;;;5091763;28;20258;-70
2021/03/22 11:54:52;;;;;;;7.90;3.17;;;;;;;;;;5096497;28;20192;-69
2021/03/22 11:57:19;;;;;;;6.63;3.30;;;;;;;;;;5105360;28;20202;-70
2021/03/22 11:59:53;;;;;;;7.00;2.85;;;;;;;;;;5101030;28;20527;-70
2021/03/22 12:02:32;;;;;;;7.35;3.17;;;;;;;;;;5103577;28;20213;-71
2021/03/22 12:05:00;;;;;;;8.23;3.33;;;;;;;;;;5100811;28;20189;-70
2021/03/22 12:07:37;;;;;;;7.43;2.77;;;;;;;;;;5095759;28;20185;-71
2021/03/22 12:10:05;;;;;;;13.80;3.65;;;;;;;;;;5095858;28;20173;-70
2021/03/22 12:12:31;;;;;;;6.13;2.97;;;;;;;;;;5105629;28;20206;-70
2021/03/22 12:14:57;;;;;;;12.00;3.20;;;;;;;;;;5092341;28;20202;-71
2021/03/22 12:17:24;;;;;;;8.50;3.25;;;;;;;;;;5099597;28;20194;-70
2021/03/22 12:19:50;;;;;;;9.47;3.73;;;;;;;;;;5099036;28;20175;-70
2021/03/22 12:22:18;;;;;;;10.40;3.00;;;;;;;;;;5099403;28;20225;-70
2021/03/22 12:24:44;;;;;;;6.87;2.60;;;;;;;;;;5097183;28;20330;-70
2021/03/22 12:27:11;;;;;;;6.82;2.80;;;;;;;;;;5097271;28;20182;-70
2021/03/22 12:29:37;;;;;;;7.33;2.73;;;;;;;;;;5099093;28;20198;-70
2021/03/22 12:32:03;;;;;;;5.95;2.45;;;;;;;;;;5101089;28;20206;-70
2021/03/22 12:34:29;;;;;;;5.78;2.63;;;;;;;;;;5101779;28;20190;-69
2021/03/22 12:36:55;;;;;;;10.47;3.23;;;;;;;;;;5091673;28;20226;-70
2021/03/22 12:39:33;;;;;;;9.13;3.43;;;;;;;;;;5089747;28;20191;-70
2021/03/22 12:42:01;;;;;;;9.33;3.70;;;;;;;;;;5078788;28;20186;-70
2021/03/22 12:44:27;;;;;;;9.20;3.87;;;;;;;;;;5081302;28;20194;-72
2021/03/22 12:46:54;;;;;;;9.73;4.17;;;;;;;;;;5084807;28;20190;-73
2021/03/22 12:49:21;;;;;;;8.80;3.73;;;;;;;;;;5089369;28;20254;-72
2021/03/22 12:51:47;;;;;;;9.30;3.57;;;;;;;;;;5077932;28;20327;-72
2021/03/22 12:54:13;;;;;;;10.60;3.80;;;;;;;;;;5072727;28;20197;-73
2021/03/22 12:56:39;;;;;;;7.23;3.73;;;;;;;;;;5081199;28;20603;-73
2021/03/22 12:59:05;;;;;;;9.00;3.40;;;;;;;;;;5073498;28;20206;-73
2021/03/22 13:01:31;;;;;;;7.57;3.70;;;;;;;;;;5076293;28;20709;-71
2021/03/22 13:03:57;;;;;;;11.23;3.87;;;;;;;;;;5073619;28;20223;-71
2021/03/22 13:06:25;;;;;;;6.83;3.20;;;;;;;;;;5084675;28;20182;-72
2021/03/22 13:08:51;;;;;;;9.67;3.77;;;;;;;;;;5087931;28;20178;-70
2021/03/22 13:11:22;;;;;;;10.37;3.77;;;;;;;;;;5081217;28;20191;-73
2021/03/22 13:13:48;;;;;;;5.83;3.50;;;;;;;;;;5086732;28;20685;-74
2021/03/22 13:16:17;;;;;;;9.47;4.10;;;;;;;;;;5079316;28;20194;-72
2021/03/22 13:18:43;;;;;;;14.90;4.77;;;;;;;;;;5080514;28;20194;-72
2021/03/22 13:21:11;;;;;;;9.03;4.17;;;;;;;;;;5082860;28;20198;-72
2021/03/22 13:23:38;;;;;;;10.20;5.70;;;;;;;;;;5076266;28;20771;-72
2021/03/22 13:26:04;;;;;;;9.53;4.60;;;;;;;;;;5064664;28;20784;-71
2021/03/22 13:28:31;;;;;;;9.63;4.67;;;;;;;;;;5081456;28;20182;-71
2021/03/22 13:30:59;;;;;;;13.53;3.67;;;;;;;;;;5074939;28;20404;-72
2021/03/22 13:33:26;;;;;;;9.77;3.57;;;;;;;;;;5069732;28;20202;-72
2021/03/22 13:35:52;;;;;;;11.70;3.63;;;;;;;;;;5069492;28;20186;-73
2021/03/22 13:38:19;;;;;;;7.83;3.20;;;;;;;;;;5068066;28;20242;-71
2021/03/22 13:40:45;;;;;;;5.73;3.00;;;;;;;;;;5077155;28;20186;-70
2021/03/22 13:43:13;;;;;;;8.30;4.40;;;;;;;;;;5070297;28;20199;-71
2021/03/22 13:45:39;;;;;;;7.13;4.17;;;;;;;;;;5067707;28;20328;-71
2021/03/22 13:48:05;;;;;;;6.70;3.57;;;;;;;;;;5067922;28;20594;-71
2021/03/22 13:50:31;;;;;;;8.43;3.83;;;;;;;;;;5068058;28;20182;-70
2021/03/22 13:52:57;;;;;;;9.27;3.70;;;;;;;;;;5068687;28;20247;-70
2021/03/22 13:55:24;;;;;;;5.83;3.47;;;;;;;;;;5075045;28;20192;-70
2021/03/22 13:57:50;;;;;;;9.03;3.80;;;;;;;;;;5071722;28;20379;-70
2021/03/22 14:00:17;;;;;;;8.17;3.73;;;;;;;;;;5078549;28;20598;-71
2021/03/22 14:02:43;;;;;;;6.63;3.47;;;;;;;;;;5074574;28;20213;-70
2021/03/22 14:05:17;;;;;;;7.03;3.80;;;;;;;;;;5072997;28;20214;-70
2021/03/22 14:07:44;;;;;;;9.50;3.60;;;;;;;;;;5070029;28;20189;-70
2021/03/22 14:10:10;;;;;;;10.30;4.10;;;;;;;;;;5083804;28;20554;-71
2021/03/22 14:12:36;;;;;;;10.30;3.90;;;;;;;;;;5073040;28;20206;-72
2021/03/22 14:15:03;;;;;;;9.23;3.90;;;;;;;;;;5082312;28;20185;-70
2021/03/22 14:17:29;;;;;;;8.70;3.70;;;;;;;;;;5074680;28;20197;-70
2021/03/22 14:19:55;;;;;;;7.27;4.33;;;;;;;;;;5074009;28;20195;-71
2021/03/22 14:22:22;;;;;;;8.93;5.67;;;;;;;;;;5066396;28;20212;-71
2021/03/22 14:24:48;;;;;;;9.43;3.93;;;;;;;;;;5075001;28;20203;-71
2021/03/22 14:27:14;;;;;;;8.83;3.47;;;;;;;;;;5072826;28;20624;-70
2021/03/22 14:29:40;;;;;;;9.13;4.30;;;;;;;;;;5076040;28;20194;-70
2021/03/22 14:32:06;;;;;;;10.03;5.00;;;;;;;;;;5074848;28;20715;-70
2021/03/22 14:34:32;;;;;;;12.63;5.27;;;;;;;;;;5071774;28;20274;-70
2021/03/22 14:36:58;;;;;;;8.10;4.40;;;;;;;;;;5083200;28;20201;-70
2021/03/22 14:39:24;;;;;;;10.23;5.80;;;;;;;;;;5076522;28;20200;-70
2021/03/22 14:41:50;;;;;;;8.53;5.30;;;;;;;;;;5067436;28;20197;-71
2021/03/22 14:44:16;;;;;;;11.00;5.87;;;;;;;;;;5065013;28;20288;-71
2021/03/22 14:46:42;;;;;;;8.10;4.73;;;;;;;;;;5071493;28;20178;-70